Time;durP1;ratioP1;P1;durP2;ratioP2;P2;SDS_P1;SDS_P2;PMS_P1;PMS_P2;Temp;Humidity;BMP_temperature;BMP_pressure;BME280_temperature;BME280_humidity;BME280_pressure;Samples;Min_cycle;Max_cycle;Signal;HPM_P1;HPM_P2
2022/08/25 00:00:47;;;;;;;5.40;3.42;;;;;;;;;;5030010;28;20623;-16
2022/08/25 00:03:14;;;;;;;6.07;3.72;;;;;;;;;;5030110;28;20821;-15
2022/08/25 00:05:42;;;;;;;6.85;3.65;;;;;;;;;;5030164;28;20234;-16
2022/08/25 00:08:10;;;;;;;6.40;4.03;;;;;;;;;;5030338;28;20344;-16
2022/08/25 00:10:37;;;;;;;7.05;4.38;;;;;;;;;;5030417;28;20227;-16
2022/08/25 00:13:06;;;;;;;5.90;3.20;;;;;;;;;;5034163;28;20241;-16
2022/08/25 00:15:34;;;;;;;4.70;3.50;;;;;;;;;;5033263;28;20253;-15
2022/08/25 00:18:01;;;;;;;6.65;3.83;;;;;;;;;;5033572;28;20227;-15
2022/08/25 00:20:32;;;;;;;5.43;3.50;;;;;;;;;;5034012;28;20709;-16
2022/08/25 00:23:00;;;;;;;4.47;3.58;;;;;;;;;;5033230;28;20269;-16
2022/08/25 00:25:27;;;;;;;7.10;3.55;;;;;;;;;;5033104;28;20238;-16
2022/08/25 00:27:55;;;;;;;11.98;4.25;;;;;;;;;;5032980;28;20269;-16
2022/08/25 00:30:24;;;;;;;9.45;4.30;;;;;;;;;;5033211;28;20246;-16
2022/08/25 00:32:51;;;;;;;6.60;3.80;;;;;;;;;;5034070;28;20233;-16
2022/08/25 00:35:24;;;;;;;9.75;3.70;;;;;;;;;;5033554;28;20313;-16
2022/08/25 00:37:51;;;;;;;5.10;3.35;;;;;;;;;;5033600;28;20227;-15
2022/08/25 00:40:19;;;;;;;8.55;3.63;;;;;;;;;;5033629;28;20239;-15
2022/08/25 00:42:46;;;;;;;11.90;4.20;;;;;;;;;;5033657;28;20675;-16
2022/08/25 00:45:13;;;;;;;4.95;3.35;;;;;;;;;;5033472;28;20988;-15
2022/08/25 00:47:42;;;;;;;8.25;3.70;;;;;;;;;;5025854;28;20460;-16
2022/08/25 00:50:11;;;;;;;7.28;3.40;;;;;;;;;;5032310;28;20235;-16
2022/08/25 00:52:39;;;;;;;4.90;3.80;;;;;;;;;;5033796;28;20259;-16
2022/08/25 00:55:08;;;;;;;8.45;3.42;;;;;;;;;;5033591;28;20281;-15
2022/08/25 00:57:37;;;;;;;5.15;4.25;;;;;;;;;;5033153;28;20229;-16
2022/08/25 01:00:06;;;;;;;4.13;3.58;;;;;;;;;;5032653;28;20237;-16
2022/08/25 01:02:33;;;;;;;4.18;3.40;;;;;;;;;;5033626;28;20694;-16
2022/08/25 01:05:02;;;;;;;4.22;3.40;;;;;;;;;;5032138;28;20278;-15
2022/08/25 01:07:29;;;;;;;4.88;3.67;;;;;;;;;;5033345;28;20241;-16
2022/08/25 01:09:57;;;;;;;7.78;3.60;;;;;;;;;;5030503;28;20242;-16
2022/08/25 01:12:24;;;;;;;4.55;3.70;;;;;;;;;;5031773;28;20227;-16
2022/08/25 01:14:51;;;;;;;6.93;3.90;;;;;;;;;;5031834;28;21055;-16
2022/08/25 01:17:19;;;;;;;5.40;3.40;;;;;;;;;;5032033;28;20702;-16
2022/08/25 01:19:46;;;;;;;5.38;3.45;;;;;;;;;;5035115;28;20711;-16
2022/08/25 01:22:16;;;;;;;5.30;3.25;;;;;;;;;;5032323;28;20738;-16
2022/08/25 01:24:44;;;;;;;5.82;3.55;;;;;;;;;;5032067;28;20234;-16
2022/08/25 01:27:12;;;;;;;4.85;3.67;;;;;;;;;;5032153;28;20246;-16
2022/08/25 01:29:39;;;;;;;9.20;3.78;;;;;;;;;;5032856;28;20607;-16
2022/08/25 01:32:07;;;;;;;8.20;3.95;;;;;;;;;;5028284;28;20232;-16
2022/08/25 01:34:35;;;;;;;4.05;3.17;;;;;;;;;;5024701;28;20234;-16
2022/08/25 01:37:03;;;;;;;6.22;3.63;;;;;;;;;;5032412;28;20403;-16
2022/08/25 01:39:35;;;;;;;4.88;3.28;;;;;;;;;;5032523;28;20231;-15
2022/08/25 01:42:19;;;;;;;6.50;3.78;;;;;;;;;;5032643;28;20722;-16
2022/08/25 01:44:47;;;;;;;4.68;3.42;;;;;;;;;;5019335;28;20231;-16
2022/08/25 01:47:14;;;;;;;4.78;3.72;;;;;;;;;;5032513;28;20249;-15
2022/08/25 01:49:42;;;;;;;6.70;3.60;;;;;;;;;;5032439;28;20242;-16
2022/08/25 01:52:10;;;;;;;4.10;3.70;;;;;;;;;;5032541;28;20230;-15
2022/08/25 01:54:39;;;;;;;7.25;3.78;;;;;;;;;;5032359;28;20238;-16
2022/08/25 01:57:07;;;;;;;9.35;3.40;;;;;;;;;;5027612;28;20309;-16
2022/08/25 01:59:35;;;;;;;6.88;3.65;;;;;;;;;;5032488;28;20230;-16
2022/08/25 02:02:02;;;;;;;4.35;3.30;;;;;;;;;;5032172;28;20243;-16
2022/08/25 02:04:31;;;;;;;5.78;3.40;;;;;;;;;;5031700;28;20764;-16
2022/08/25 02:07:00;;;;;;;4.40;3.35;;;;;;;;;;5032497;28;20246;-16
2022/08/25 02:09:27;;;;;;;3.88;3.30;;;;;;;;;;5032049;28;20230;-16
2022/08/25 02:11:56;;;;;;;3.80;3.30;;;;;;;;;;5031695;28;20223;-16
2022/08/25 02:14:23;;;;;;;6.95;3.22;;;;;;;;;;5032408;28;20289;-16
2022/08/25 02:16:51;;;;;;;6.13;3.45;;;;;;;;;;5031933;28;20695;-16
2022/08/25 02:19:19;;;;;;;9.10;4.00;;;;;;;;;;5028964;28;20322;-15
2022/08/25 02:21:46;;;;;;;7.25;3.50;;;;;;;;;;5029693;28;21126;-15
2022/08/25 02:24:14;;;;;;;5.97;3.60;;;;;;;;;;5032040;28;20235;-15
2022/08/25 02:26:41;;;;;;;6.60;3.38;;;;;;;;;;5032915;28;20238;-15
2022/08/25 02:29:10;;;;;;;4.47;3.38;;;;;;;;;;5032532;28;20701;-16
2022/08/25 02:31:38;;;;;;;6.10;3.47;;;;;;;;;;5032830;28;20227;-16
2022/08/25 02:34:05;;;;;;;9.05;3.40;;;;;;;;;;5031757;28;20275;-16
2022/08/25 02:36:32;;;;;;;6.40;3.78;;;;;;;;;;5031782;28;20241;-16
2022/08/25 02:39:00;;;;;;;4.57;3.17;;;;;;;;;;5031769;28;20261;-16
2022/08/25 02:41:27;;;;;;;4.88;3.50;;;;;;;;;;5020145;28;20235;-16
2022/08/25 02:43:58;;;;;;;7.47;3.50;;;;;;;;;;5028716;28;20239;-15
2022/08/25 02:46:27;;;;;;;5.22;3.50;;;;;;;;;;5030863;28;20231;-16
2022/08/25 02:48:54;;;;;;;4.47;3.60;;;;;;;;;;5032011;28;20288;-16
2022/08/25 02:51:22;;;;;;;6.43;3.50;;;;;;;;;;5031484;28;20291;-16
2022/08/25 02:53:49;;;;;;;4.95;3.75;;;;;;;;;;5031011;28;20231;-16
2022/08/25 02:56:17;;;;;;;4.13;2.92;;;;;;;;;;5031060;28;20372;-16
2022/08/25 02:58:44;;;;;;;4.05;3.00;;;;;;;;;;5031587;28;20818;-16
2022/08/25 03:01:12;;;;;;;4.38;3.17;;;;;;;;;;5031325;28;20311;-15
2022/08/25 03:03:42;;;;;;;7.95;3.20;;;;;;;;;;5031148;28;20274;-16
2022/08/25 03:06:10;;;;;;;6.75;3.90;;;;;;;;;;5031481;28;20227;-15
2022/08/25 03:08:37;;;;;;;5.90;3.47;;;;;;;;;;5017629;28;20255;-16
2022/08/25 03:11:05;;;;;;;5.15;3.55;;;;;;;;;;5030835;28;20238;-16
2022/08/25 03:13:32;;;;;;;8.70;3.72;;;;;;;;;;5031427;28;20239;-16
2022/08/25 03:15:59;;;;;;;7.53;3.70;;;;;;;;;;5030978;28;20231;-16
2022/08/25 03:18:29;;;;;;;6.50;3.67;;;;;;;;;;5029974;28;20237;-15
2022/08/25 03:20:58;;;;;;;5.55;3.35;;;;;;;;;;5030898;28;20301;-15
2022/08/25 03:23:25;;;;;;;4.82;3.53;;;;;;;;;;5030262;28;20249;-15
2022/08/25 03:28:38;;;;;;;8.00;3.60;;;;;;;;;;5030785;28;20242;-16
2022/08/25 03:31:05;;;;;;;5.88;3.45;;;;;;;;;;5028075;28;20223;-16
2022/08/25 03:33:33;;;;;;;5.30;3.40;;;;;;;;;;5023522;28;20613;-16
2022/08/25 03:36:02;;;;;;;5.72;3.40;;;;;;;;;;5030709;28;20235;-15
2022/08/25 03:38:29;;;;;;;4.55;3.35;;;;;;;;;;5030672;28;20714;-16
2022/08/25 03:40:56;;;;;;;6.07;3.38;;;;;;;;;;5030409;28;20235;-16
2022/08/25 03:43:24;;;;;;;5.45;3.25;;;;;;;;;;5029974;28;20646;-16
2022/08/25 03:45:51;;;;;;;7.22;3.30;;;;;;;;;;5030109;28;20666;-16
2022/08/25 03:48:19;;;;;;;5.13;3.28;;;;;;;;;;5030774;28;20265;-16
2022/08/25 03:50:46;;;;;;;4.35;3.05;;;;;;;;;;5030538;28;20250;-16
2022/08/25 03:53:19;;;;;;;5.47;3.72;;;;;;;;;;5017527;28;20245;-16
2022/08/25 03:55:46;;;;;;;7.05;3.60;;;;;;;;;;5029010;28;20235;-16
2022/08/25 03:58:14;;;;;;;3.50;3.20;;;;;;;;;;5030598;28;20229;-16
2022/08/25 04:00:41;;;;;;;6.40;3.38;;;;;;;;;;5030717;28;20241;-16
2022/08/25 04:03:09;;;;;;;6.07;3.53;;;;;;;;;;5030165;28;20238;-15
2022/08/25 04:05:36;;;;;;;6.10;3.30;;;;;;;;;;5030477;28;20227;-15
2022/08/25 04:08:03;;;;;;;4.55;3.28;;;;;;;;;;5029801;28;20239;-16
2022/08/25 04:10:32;;;;;;;4.30;3.40;;;;;;;;;;5030479;28;20580;-16
2022/08/25 04:13:00;;;;;;;4.60;3.40;;;;;;;;;;5030080;28;20231;-16
2022/08/25 04:15:28;;;;;;;4.68;3.20;;;;;;;;;;5030359;28;20231;-16
2022/08/25 04:17:57;;;;;;;7.30;3.50;;;;;;;;;;5025977;28;20231;-16
2022/08/25 04:20:25;;;;;;;6.40;4.35;;;;;;;;;;5030244;28;20247;-16
2022/08/25 04:22:52;;;;;;;5.00;3.53;;;;;;;;;;5029897;28;20249;-15
2022/08/25 04:25:19;;;;;;;5.55;3.65;;;;;;;;;;5029870;28;20975;-15
2022/08/25 04:27:48;;;;;;;4.55;3.22;;;;;;;;;;5030240;28;20243;-16
2022/08/25 04:30:16;;;;;;;5.82;3.33;;;;;;;;;;5030212;28;20242;-16
2022/08/25 04:32:43;;;;;;;6.85;4.22;;;;;;;;;;5029889;28;20230;-16
2022/08/25 04:35:10;;;;;;;4.45;3.30;;;;;;;;;;5029596;28;21032;-16
2022/08/25 04:37:38;;;;;;;6.57;3.70;;;;;;;;;;5030114;28;20670;-16
2022/08/25 04:40:05;;;;;;;6.05;3.70;;;;;;;;;;5030202;28;20245;-16
2022/08/25 04:42:33;;;;;;;5.88;3.67;;;;;;;;;;5024994;28;21011;-16
2022/08/25 04:45:03;;;;;;;4.53;3.53;;;;;;;;;;5030113;28;20233;-16
2022/08/25 04:47:30;;;;;;;4.45;3.47;;;;;;;;;;5029392;28;20617;-16
2022/08/25 04:49:57;;;;;;;3.70;3.40;;;;;;;;;;5029925;28;20237;-16
2022/08/25 04:52:25;;;;;;;9.48;3.67;;;;;;;;;;5029780;28;20242;-15
2022/08/25 04:54:52;;;;;;;8.63;3.42;;;;;;;;;;5029873;28;20223;-16
2022/08/25 04:57:20;;;;;;;5.68;3.28;;;;;;;;;;5029514;28;20223;-16
2022/08/25 04:59:47;;;;;;;5.45;3.50;;;;;;;;;;5033026;28;20266;-16
2022/08/25 05:02:16;;;;;;;7.45;3.40;;;;;;;;;;5033298;28;20751;-16
2022/08/25 05:04:43;;;;;;;5.72;2.95;;;;;;;;;;5033103;28;20234;-16
2022/08/25 05:07:11;;;;;;;6.15;3.50;;;;;;;;;;5023170;28;20303;-16
2022/08/25 05:09:38;;;;;;;6.38;3.85;;;;;;;;;;5033052;28;20227;-16
2022/08/25 05:12:05;;;;;;;3.53;3.10;;;;;;;;;;5033144;28;20227;-16
2022/08/25 05:14:33;;;;;;;4.15;3.42;;;;;;;;;;5032988;28;20242;-15
2022/08/25 05:17:00;;;;;;;4.55;3.28;;;;;;;;;;5033068;28;20239;-15
2022/08/25 05:19:29;;;;;;;4.22;3.55;;;;;;;;;;5032605;28;20270;-15
2022/08/25 05:21:57;;;;;;;10.10;3.92;;;;;;;;;;5031921;28;20241;-16
2022/08/25 05:24:24;;;;;;;6.80;3.50;;;;;;;;;;5032555;28;20946;-16
2022/08/25 05:26:51;;;;;;;6.38;3.53;;;;;;;;;;5032782;28;20246;-15
2022/08/25 05:29:19;;;;;;;9.15;3.80;;;;;;;;;;5027227;28;20233;-16
2022/08/25 05:31:46;;;;;;;6.45;3.45;;;;;;;;;;5037686;28;20234;-16
2022/08/25 05:34:17;;;;;;;7.88;3.70;;;;;;;;;;5032783;28;20987;-16
2022/08/25 05:36:46;;;;;;;7.47;4.18;;;;;;;;;;5032697;28;20231;-16
2022/08/25 05:39:13;;;;;;;7.35;3.75;;;;;;;;;;5033086;28;20227;-16
2022/08/25 05:41:41;;;;;;;4.95;3.42;;;;;;;;;;5032208;28;20231;-16
2022/08/25 05:44:08;;;;;;;6.55;4.03;;;;;;;;;;5032436;28;20235;-16
2022/08/25 05:46:35;;;;;;;7.70;3.20;;;;;;;;;;5032018;28;20246;-16
2022/08/25 05:49:03;;;;;;;10.05;4.00;;;;;;;;;;5032375;28;20698;-16
2022/08/25 05:51:30;;;;;;;4.63;3.78;;;;;;;;;;5032493;28;20239;-16
2022/08/25 05:53:59;;;;;;;9.10;3.65;;;;;;;;;;5031820;28;20239;-16
2022/08/25 05:56:26;;;;;;;6.95;3.58;;;;;;;;;;5032502;28;20239;-15
2022/08/25 05:58:53;;;;;;;6.22;4.32;;;;;;;;;;5032223;28;20230;-15
2022/08/25 06:04:09;;;;;;;15.40;3.78;;;;;;;;;;5032126;28;20354;-15
2022/08/25 06:06:37;;;;;;;9.70;4.22;;;;;;;;;;5032058;28;21037;-15
2022/08/25 06:09:07;;;;;;;6.47;3.60;;;;;;;;;;5031431;28;21006;-15
2022/08/25 06:11:36;;;;;;;3.92;3.53;;;;;;;;;;5031718;28;20297;-16
2022/08/25 06:14:03;;;;;;;9.98;3.92;;;;;;;;;;5031582;28;20235;-15
2022/08/25 06:16:30;;;;;;;6.10;3.55;;;;;;;;;;5023317;28;20238;-15
2022/08/25 06:18:59;;;;;;;5.95;3.67;;;;;;;;;;5031851;28;20227;-15
2022/08/25 06:21:26;;;;;;;5.97;3.63;;;;;;;;;;5031922;28;20682;-15
2022/08/25 06:23:54;;;;;;;11.18;3.78;;;;;;;;;;5031727;28;20250;-16
2022/08/25 06:26:23;;;;;;;6.50;4.40;;;;;;;;;;5031754;28;20239;-16
2022/08/25 06:28:50;;;;;;;7.20;3.65;;;;;;;;;;5031491;28;20238;-16
2022/08/25 06:31:17;;;;;;;4.57;3.83;;;;;;;;;;5032114;28;20248;-16
2022/08/25 06:33:45;;;;;;;4.50;3.80;;;;;;;;;;5031786;28;20266;-16
2022/08/25 06:36:12;;;;;;;6.40;3.15;;;;;;;;;;5030798;28;20235;-16
2022/08/25 06:38:40;;;;;;;6.35;3.33;;;;;;;;;;5031420;28;20965;-15
2022/08/25 06:41:09;;;;;;;8.25;4.13;;;;;;;;;;5021879;28;20250;-16
2022/08/25 06:43:38;;;;;;;7.82;3.50;;;;;;;;;;5031932;28;20237;-16
2022/08/25 06:46:11;;;;;;;7.15;3.95;;;;;;;;;;5031384;28;20238;-16
2022/08/25 06:48:38;;;;;;;5.15;4.10;;;;;;;;;;5025667;28;20237;-16
2022/08/25 06:51:06;;;;;;;6.97;4.40;;;;;;;;;;5028127;28;20249;-16
2022/08/25 06:53:36;;;;;;;4.38;3.92;;;;;;;;;;5031515;28;20238;-15
2022/08/25 06:56:03;;;;;;;7.97;4.50;;;;;;;;;;5031508;28;20275;-15
2022/08/25 06:58:33;;;;;;;9.25;4.40;;;;;;;;;;5031033;28;20361;-16
2022/08/25 07:01:07;;;;;;;8.95;4.15;;;;;;;;;;5030975;28;20712;-16
2022/08/25 07:03:42;;;;;;;9.15;4.18;;;;;;;;;;5012870;28;20235;-15
2022/08/25 07:06:09;;;;;;;5.90;3.97;;;;;;;;;;5025787;28;20242;-16
2022/08/25 07:08:37;;;;;;;7.65;4.38;;;;;;;;;;5031066;28;20238;-16
2022/08/25 07:11:04;;;;;;;9.23;4.13;;;;;;;;;;5031000;28;20230;-17
2022/08/25 07:13:32;;;;;;;8.82;4.13;;;;;;;;;;5031478;28;20235;-16
2022/08/25 07:16:00;;;;;;;7.03;3.95;;;;;;;;;;5031411;28;20382;-15
2022/08/25 07:18:30;;;;;;;7.88;3.85;;;;;;;;;;5031304;28;20265;-16
2022/08/25 07:20:57;;;;;;;9.68;4.00;;;;;;;;;;5029438;28;20246;-16
2022/08/25 07:23:25;;;;;;;8.27;3.80;;;;;;;;;;5030863;28;20249;-16
2022/08/25 07:25:52;;;;;;;5.03;3.60;;;;;;;;;;5030364;28;20238;-16
2022/08/25 07:28:20;;;;;;;5.63;3.60;;;;;;;;;;5018386;28;20306;-16
2022/08/25 07:30:49;;;;;;;7.20;3.70;;;;;;;;;;5030657;28;20670;-16
2022/08/25 07:33:18;;;;;;;6.93;3.90;;;;;;;;;;5030921;28;20270;-16
2022/08/25 07:35:45;;;;;;;5.70;3.53;;;;;;;;;;5030791;28;20266;-16
2022/08/25 07:38:13;;;;;;;5.03;3.53;;;;;;;;;;5031201;28;20227;-16
2022/08/25 07:40:53;;;;;;;4.72;3.60;;;;;;;;;;5030809;28;20293;-16
2022/08/25 07:43:23;;;;;;;4.05;3.60;;;;;;;;;;5030461;28;20241;-16
2022/08/25 07:45:50;;;;;;;5.85;3.50;;;;;;;;;;5030606;28;20287;-16
2022/08/25 07:48:19;;;;;;;7.20;3.90;;;;;;;;;;5031075;28;20238;-16
2022/08/25 07:50:48;;;;;;;7.25;3.67;;;;;;;;;;5027221;28;20236;-16
2022/08/25 07:53:15;;;;;;;5.55;3.58;;;;;;;;;;5019805;28;20239;-16
2022/08/25 07:55:43;;;;;;;6.45;4.25;;;;;;;;;;5030631;28;20231;-16
2022/08/25 07:58:14;;;;;;;7.18;3.75;;;;;;;;;;5030621;28;20277;-16
2022/08/25 08:00:41;;;;;;;6.03;4.03;;;;;;;;;;5030478;28;20235;-15
2022/08/25 08:03:08;;;;;;;9.18;4.10;;;;;;;;;;5030585;28;20234;-16
2022/08/25 08:05:51;;;;;;;6.30;3.53;;;;;;;;;;5022476;28;20238;-16
2022/08/25 08:08:18;;;;;;;4.47;3.55;;;;;;;;;;5030890;28;20238;-16
2022/08/25 08:10:46;;;;;;;6.35;3.70;;;;;;;;;;5030558;28;20231;-16
2022/08/25 08:13:30;;;;;;;4.85;3.58;;;;;;;;;;5030807;28;20285;-16
2022/08/25 08:15:57;;;;;;;5.72;3.72;;;;;;;;;;5025580;28;20238;-16
2022/08/25 08:18:25;;;;;;;4.10;3.30;;;;;;;;;;5030722;28;20234;-16
2022/08/25 08:20:54;;;;;;;7.65;3.60;;;;;;;;;;5030302;28;20239;-16
2022/08/25 08:23:26;;;;;;;7.10;3.58;;;;;;;;;;5029646;28;20238;-16
2022/08/25 08:25:54;;;;;;;4.80;3.80;;;;;;;;;;5029873;28;20239;-16
2022/08/25 08:28:26;;;;;;;6.88;3.35;;;;;;;;;;5030591;28;20239;-16
2022/08/25 08:30:53;;;;;;;7.50;3.63;;;;;;;;;;5030052;28;20230;-15
2022/08/25 08:33:22;;;;;;;7.13;3.65;;;;;;;;;;5032639;28;20227;-16
2022/08/25 08:35:56;;;;;;;4.53;3.72;;;;;;;;;;5033708;28;20238;-16
2022/08/25 08:38:25;;;;;;;4.70;3.53;;;;;;;;;;5030507;28;20222;-16
2022/08/25 08:42:15;;;;;;;4.65;3.58;;;;;;;;;;5032992;28;20231;-16
2022/08/25 08:43:50;;;;;;;6.28;3.92;;;;;;;;;;5033432;28;20227;-16
2022/08/25 08:46:17;;;;;;;7.32;3.45;;;;;;;;;;5033392;28;20699;-15
2022/08/25 08:48:49;;;;;;;5.25;3.38;;;;;;;;;;5033167;28;20231;-15
2022/08/25 08:51:19;;;;;;;6.53;4.20;;;;;;;;;;5033414;28;20260;-16
2022/08/25 08:53:51;;;;;;;3.88;3.45;;;;;;;;;;5033841;28;20980;-16
2022/08/25 08:56:19;;;;;;;8.73;3.78;;;;;;;;;;5033615;28;20262;-16
2022/08/25 08:58:47;;;;;;;5.78;3.75;;;;;;;;;;5032370;28;20230;-16
2022/08/25 09:01:18;;;;;;;6.63;3.20;;;;;;;;;;5032792;28;20245;-16
2022/08/25 09:03:47;;;;;;;5.25;3.80;;;;;;;;;;5033563;28;20285;-16
2022/08/25 09:06:24;;;;;;;5.10;3.45;;;;;;;;;;5032466;28;20840;-16
2022/08/25 09:08:52;;;;;;;4.72;3.80;;;;;;;;;;5033294;28;20235;-16
2022/08/25 09:11:21;;;;;;;4.15;3.40;;;;;;;;;;5032359;28;20333;-16
2022/08/25 09:13:56;;;;;;;5.13;3.45;;;;;;;;;;5033086;28;20235;-16
2022/08/25 09:19:14;;;;;;;5.57;3.75;;;;;;;;;;5033448;28;20241;-15
2022/08/25 09:21:52;;;;;;;8.32;3.63;;;;;;;;;;5031534;28;20293;-16
2022/08/25 09:24:23;;;;;;;4.60;4.03;;;;;;;;;;5032747;28;20876;-16
2022/08/25 09:26:53;;;;;;;5.03;4.00;;;;;;;;;;5032870;28;20563;-16
2022/08/25 09:29:21;;;;;;;7.00;3.92;;;;;;;;;;5032881;28;20239;-17
2022/08/25 09:31:51;;;;;;;4.43;3.85;;;;;;;;;;5031300;28;20389;-16
2022/08/25 09:34:19;;;;;;;6.25;3.83;;;;;;;;;;5032864;28;20230;-16
2022/08/25 09:36:49;;;;;;;5.90;3.75;;;;;;;;;;5032791;28;20242;-16
2022/08/25 09:39:19;;;;;;;5.28;3.90;;;;;;;;;;5033043;28;20231;-16
2022/08/25 09:41:48;;;;;;;7.47;4.00;;;;;;;;;;5032978;28;20352;-16
2022/08/25 09:44:19;;;;;;;5.70;3.70;;;;;;;;;;5031303;28;20234;-16
2022/08/25 09:47:01;;;;;;;6.78;4.18;;;;;;;;;;5030454;28;20234;-16
2022/08/25 09:49:36;;;;;;;8.15;4.13;;;;;;;;;;5019673;28;20231;-16
2022/08/25 09:52:20;;;;;;;6.60;4.38;;;;;;;;;;5032355;28;20226;-16
2022/08/25 09:54:49;;;;;;;6.93;4.03;;;;;;;;;;5031720;28;20237;-16
2022/08/25 09:57:30;;;;;;;8.27;3.72;;;;;;;;;;5031850;28;20235;-17
2022/08/25 09:59:57;;;;;;;5.15;3.85;;;;;;;;;;5032572;28;20725;-16
2022/08/25 10:02:25;;;;;;;8.50;4.00;;;;;;;;;;5032464;28;20226;-16
2022/08/25 10:04:53;;;;;;;8.02;3.67;;;;;;;;;;5032202;28;20325;-16
2022/08/25 10:07:21;;;;;;;6.80;3.60;;;;;;;;;;5032401;28;20330;-16
2022/08/25 10:09:52;;;;;;;5.72;3.55;;;;;;;;;;5031656;28;21677;-16
2022/08/25 10:12:21;;;;;;;6.18;3.70;;;;;;;;;;5032216;28;20234;-16
2022/08/25 10:14:54;;;;;;;6.05;3.85;;;;;;;;;;5032317;28;20223;-16
2022/08/25 10:17:24;;;;;;;5.88;3.20;;;;;;;;;;5026286;28;20235;-16
2022/08/25 10:20:12;;;;;;;6.13;3.40;;;;;;;;;;5032274;28;20234;-16
2022/08/25 10:22:39;;;;;;;5.93;3.85;;;;;;;;;;5031311;28;20239;-17
2022/08/25 10:25:09;;;;;;;7.60;3.20;;;;;;;;;;5031762;28;20235;-16
2022/08/25 10:27:37;;;;;;;4.63;3.60;;;;;;;;;;5032467;28;20254;-16
2022/08/25 10:30:07;;;;;;;4.57;3.50;;;;;;;;;;5031954;28;20235;-16
2022/08/25 10:32:39;;;;;;;9.32;3.22;;;;;;;;;;5031868;28;20230;-16
2022/08/25 10:35:07;;;;;;;6.00;3.58;;;;;;;;;;5025735;28;20231;-16
2022/08/25 10:37:39;;;;;;;9.23;4.03;;;;;;;;;;5030506;28;20335;-16
2022/08/25 10:40:10;;;;;;;4.15;3.00;;;;;;;;;;5026615;28;20254;-17
2022/08/25 10:42:39;;;;;;;6.07;3.38;;;;;;;;;;5030491;28;20325;-16
2022/08/25 10:48:21;;;;;;;8.57;3.78;;;;;;;;;;4984875;28;20274;-16
2022/08/25 10:50:50;;;;;;;3.90;3.38;;;;;;;;;;5021310;28;20297;-16
2022/08/25 10:53:21;;;;;;;8.40;3.33;;;;;;;;;;5026838;28;20254;-16
2022/08/25 10:55:52;;;;;;;6.03;3.22;;;;;;;;;;5027059;28;20261;-16
2022/08/25 10:58:22;;;;;;;5.63;3.50;;;;;;;;;;5027497;28;20238;-16
2022/08/25 11:00:51;;;;;;;8.35;3.22;;;;;;;;;;5026621;28;20421;-16
2022/08/25 11:03:22;;;;;;;5.72;3.03;;;;;;;;;;5026878;28;20226;-16
2022/08/25 11:05:53;;;;;;;4.90;3.10;;;;;;;;;;5026290;28;20237;-16
2022/08/25 11:08:22;;;;;;;6.90;3.30;;;;;;;;;;5027249;28;20706;-17
2022/08/25 11:10:52;;;;;;;6.30;3.50;;;;;;;;;;5027518;28;20276;-16
2022/08/25 11:13:22;;;;;;;4.47;3.17;;;;;;;;;;5026910;28;20710;-16
2022/08/25 11:15:51;;;;;;;4.22;3.20;;;;;;;;;;5028191;28;20345;-16
2022/08/25 11:18:42;;;;;;;4.00;3.00;;;;;;;;;;5029725;28;20242;-16
2022/08/25 11:21:11;;;;;;;4.53;3.15;;;;;;;;;;5026071;28;20239;-16
2022/08/25 11:23:39;;;;;;;3.90;3.30;;;;;;;;;;5027556;28;20239;-16
2022/08/25 11:26:10;;;;;;;4.20;3.10;;;;;;;;;;5029278;28;20239;-16
2022/08/25 11:28:42;;;;;;;5.03;3.53;;;;;;;;;;5024940;28;20243;-16
2022/08/25 11:31:09;;;;;;;6.50;3.03;;;;;;;;;;5026741;28;20231;-16
2022/08/25 11:33:38;;;;;;;8.40;2.80;;;;;;;;;;5024970;28;20230;-16
2022/08/25 11:36:09;;;;;;;4.85;2.95;;;;;;;;;;5023970;28;20243;-16
2022/08/25 11:38:40;;;;;;;4.57;3.15;;;;;;;;;;5023968;28;20293;-15
2022/08/25 11:41:11;;;;;;;3.67;2.90;;;;;;;;;;5024534;28;20257;-16
2022/08/25 11:43:43;;;;;;;3.15;2.50;;;;;;;;;;5025840;28;20235;-16
2022/08/25 11:46:16;;;;;;;3.50;3.05;;;;;;;;;;5024968;28;20239;-16
2022/08/25 11:48:44;;;;;;;4.18;3.20;;;;;;;;;;5028261;28;20608;-16
2022/08/25 11:51:12;;;;;;;3.17;2.83;;;;;;;;;;5025806;28;20627;-16
2022/08/25 11:53:40;;;;;;;3.83;3.25;;;;;;;;;;5027963;28;20254;-15
2022/08/25 11:56:11;;;;;;;4.63;3.00;;;;;;;;;;5023896;28;20234;-16
2022/08/25 11:58:44;;;;;;;6.68;3.20;;;;;;;;;;5023736;28;20289;-16
2022/08/25 12:01:13;;;;;;;3.92;2.97;;;;;;;;;;5026585;28;20721;-16
2022/08/25 12:03:51;;;;;;;3.50;2.88;;;;;;;;;;5024244;28;21055;-15
2022/08/25 12:06:21;;;;;;;6.38;3.22;;;;;;;;;;5027780;28;20246;-16
2022/08/25 12:08:49;;;;;;;7.03;2.95;;;;;;;;;;5024236;28;20246;-16
2022/08/25 12:11:32;;;;;;;5.00;2.80;;;;;;;;;;5031284;28;20709;-16
2022/08/25 12:14:12;;;;;;;3.45;2.53;;;;;;;;;;5033458;28;20841;-16
2022/08/25 12:16:40;;;;;;;7.60;3.65;;;;;;;;;;5033736;28;20273;-16
2022/08/25 12:19:26;;;;;;;7.63;3.22;;;;;;;;;;5032986;28;20285;-16
2022/08/25 12:21:55;;;;;;;8.68;3.65;;;;;;;;;;5029208;28;20699;-17
2022/08/25 12:24:24;;;;;;;7.80;3.30;;;;;;;;;;5033514;28;20634;-16
2022/08/25 12:26:54;;;;;;;4.28;3.20;;;;;;;;;;5033198;28;20234;-16
2022/08/25 12:29:26;;;;;;;6.22;2.90;;;;;;;;;;5031771;28;20318;-15
2022/08/25 12:32:01;;;;;;;7.72;3.10;;;;;;;;;;5033537;28;20357;-16
2022/08/25 12:34:36;;;;;;;5.20;2.80;;;;;;;;;;5030876;28;20238;-16
2022/08/25 12:37:04;;;;;;;5.45;3.13;;;;;;;;;;5032306;28;21002;-15
2022/08/25 12:39:33;;;;;;;5.57;3.22;;;;;;;;;;5031798;28;20227;-16
2022/08/25 12:42:02;;;;;;;4.50;2.85;;;;;;;;;;5033679;28;20234;-16
2022/08/25 12:44:37;;;;;;;5.53;3.15;;;;;;;;;;5033321;28;20286;-16
2022/08/25 12:47:05;;;;;;;6.65;3.13;;;;;;;;;;5030337;28;20968;-16
2022/08/25 12:49:33;;;;;;;5.20;2.80;;;;;;;;;;5028912;28;20993;-15
2022/08/25 12:52:01;;;;;;;4.45;3.10;;;;;;;;;;5023103;28;20797;-16
2022/08/25 12:54:36;;;;;;;3.33;2.90;;;;;;;;;;5032584;28;20322;-16
2022/08/25 12:57:05;;;;;;;5.35;3.35;;;;;;;;;;5033472;28;20226;-16
2022/08/25 12:59:33;;;;;;;5.50;3.25;;;;;;;;;;5033056;28;20234;-16
2022/08/25 13:02:05;;;;;;;4.18;3.20;;;;;;;;;;5033387;28;20231;-16
2022/08/25 13:04:48;;;;;;;5.45;2.60;;;;;;;;;;5032680;28;20238;-16
2022/08/25 13:07:18;;;;;;;5.32;3.47;;;;;;;;;;5031631;28;20234;-16
2022/08/25 13:09:57;;;;;;;5.10;3.00;;;;;;;;;;5032871;28;20698;-16
2022/08/25 13:12:25;;;;;;;4.32;3.65;;;;;;;;;;5042187;28;21149;-15
2022/08/25 13:14:55;;;;;;;5.15;3.30;;;;;;;;;;5033205;28;20243;-16
2022/08/25 13:17:27;;;;;;;7.07;3.28;;;;;;;;;;5033031;28;20231;-16
2022/08/25 13:20:10;;;;;;;3.47;3.15;;;;;;;;;;5027852;28;20227;-16
2022/08/25 13:22:37;;;;;;;3.22;2.92;;;;;;;;;;5030599;28;20243;-16
2022/08/25 13:25:05;;;;;;;4.00;2.85;;;;;;;;;;5024093;28;20313;-16
2022/08/25 13:27:33;;;;;;;4.18;2.67;;;;;;;;;;5025646;28;21132;-16
2022/08/25 13:30:01;;;;;;;4.93;2.92;;;;;;;;;;5031238;28;20226;-16
2022/08/25 13:32:32;;;;;;;3.30;3.00;;;;;;;;;;5031314;28;20231;-16
2022/08/25 13:35:08;;;;;;;3.80;2.72;;;;;;;;;;5029376;28;20239;-16
2022/08/25 13:37:37;;;;;;;3.88;2.95;;;;;;;;;;5014657;28;20314;-16
2022/08/25 13:40:09;;;;;;;4.68;2.85;;;;;;;;;;5031372;28;20254;-16
2022/08/25 13:42:38;;;;;;;7.18;2.88;;;;;;;;;;5033390;28;20713;-16
2022/08/25 13:45:09;;;;;;;6.55;3.28;;;;;;;;;;5031866;28;20230;-16
2022/08/25 13:47:39;;;;;;;5.55;3.13;;;;;;;;;;5031675;28;20231;-16
2022/08/25 13:50:22;;;;;;;4.50;2.90;;;;;;;;;;5023906;28;20325;-16
2022/08/25 13:52:53;;;;;;;4.90;2.60;;;;;;;;;;5026438;28;20748;-16
2022/08/25 13:55:21;;;;;;;7.22;3.55;;;;;;;;;;5028309;28;20239;-15
2022/08/25 13:57:54;;;;;;;4.32;2.70;;;;;;;;;;5025206;28;20263;-16
2022/08/25 14:00:30;;;;;;;4.20;2.60;;;;;;;;;;5030702;28;20266;-15
2022/08/25 14:03:00;;;;;;;5.10;2.72;;;;;;;;;;5031694;28;21029;-16
2022/08/25 14:05:37;;;;;;;5.60;2.80;;;;;;;;;;5040121;28;20234;-15
2022/08/25 14:08:04;;;;;;;3.72;2.95;;;;;;;;;;5030452;28;20340;-16
2022/08/25 14:10:52;;;;;;;3.00;2.67;;;;;;;;;;5026393;28;20334;-15
2022/08/25 14:13:28;;;;;;;4.18;3.22;;;;;;;;;;5017138;28;20234;-16
2022/08/25 14:16:06;;;;;;;4.05;3.08;;;;;;;;;;5032544;28;20234;-16
2022/08/25 14:18:34;;;;;;;5.03;2.83;;;;;;;;;;5018521;28;20235;-15
2022/08/25 14:21:06;;;;;;;2.90;2.58;;;;;;;;;;5027193;28;20250;-16
2022/08/25 14:23:35;;;;;;;3.17;2.80;;;;;;;;;;5016817;28;20246;-16
2022/08/25 14:26:02;;;;;;;6.55;3.20;;;;;;;;;;5024118;28;20231;-16
2022/08/25 14:28:32;;;;;;;4.57;2.80;;;;;;;;;;5030757;28;20326;-16
2022/08/25 14:31:01;;;;;;;3.05;2.78;;;;;;;;;;5031061;28;20246;-16
2022/08/25 14:33:32;;;;;;;3.05;2.75;;;;;;;;;;5032152;28;20241;-16
2022/08/25 14:36:03;;;;;;;3.40;2.80;;;;;;;;;;5027689;28;20710;-16
2022/08/25 14:38:32;;;;;;;4.07;2.78;;;;;;;;;;5027318;28;21658;-15
2022/08/25 14:40:59;;;;;;;5.32;2.72;;;;;;;;;;5027557;28;20600;-16
2022/08/25 14:43:27;;;;;;;2.90;2.70;;;;;;;;;;5027548;28;20280;-16
2022/08/25 14:45:58;;;;;;;5.60;2.20;;;;;;;;;;5028044;28;20230;-16
2022/08/25 14:48:26;;;;;;;2.65;2.45;;;;;;;;;;5026403;28;20248;-16
2022/08/25 14:50:54;;;;;;;3.85;2.67;;;;;;;;;;5027996;28;20323;-16
2022/08/25 14:53:23;;;;;;;4.78;2.78;;;;;;;;;;5028289;28;20308;-16
2022/08/25 14:55:52;;;;;;;3.88;2.72;;;;;;;;;;5027130;28;20227;-16
2022/08/25 14:58:25;;;;;;;2.65;2.42;;;;;;;;;;5026835;28;20235;-16
2022/08/25 15:00:53;;;;;;;3.35;2.35;;;;;;;;;;5027334;28;20259;-16
2022/08/25 15:03:21;;;;;;;3.40;2.88;;;;;;;;;;5025899;28;20242;-16
2022/08/25 15:05:48;;;;;;;3.00;2.70;;;;;;;;;;5028755;28;20256;-15
2022/08/25 15:11:03;;;;;;;3.40;2.50;;;;;;;;;;5026253;28;20254;-16